createdAt,value
2018-02-27T00:00:46.901Z,94.20
2018-02-27T00:03:48.120Z,94.20
2018-02-27T00:06:49.357Z,94.00
2018-02-27T00:09:50.575Z,94.00
2018-02-27T00:12:51.813Z,94.30
2018-02-27T00:15:53.770Z,93.80
2018-02-27T00:18:54.973Z,93.70
2018-02-27T00:21:56.194Z,93.60
2018-02-27T00:24:57.429Z,93.60
2018-02-27T00:27:58.620Z,93.40
2018-02-27T00:30:59.848Z,93.50
2018-02-27T00:34:01.116Z,93.50
2018-02-27T00:37:02.373Z,93.30
2018-02-27T00:40:03.616Z,93.30
2018-02-27T00:43:04.860Z,93.30
2018-02-27T00:46:06.844Z,93.30
2018-02-27T00:49:08.809Z,93.30
2018-02-27T00:52:10.020Z,93.30
2018-02-27T00:55:11.248Z,93.40
2018-02-27T00:58:12.441Z,93.20
2018-02-27T01:01:13.836Z,93.20
2018-02-27T01:04:15.069Z,92.90
2018-02-27T01:07:16.274Z,93.00
2018-02-27T01:10:17.497Z,92.80
2018-02-27T01:13:18.753Z,92.70
2018-02-27T01:16:19.949Z,92.40
2018-02-27T01:19:21.265Z,92.50
2018-02-27T01:22:23.193Z,92.70
2018-02-27T01:25:24.416Z,92.70
2018-02-27T01:28:25.690Z,92.60
2018-02-27T01:31:27.673Z,92.40
2018-02-27T01:34:28.869Z,92.40
2018-02-27T01:37:30.087Z,92.40
2018-02-27T01:40:31.309Z,92.70
2018-02-27T01:43:32.510Z,93.00
2018-02-27T01:46:33.736Z,93.30
2018-02-27T01:49:35.044Z,93.60
2018-02-27T01:52:36.257Z,94.00
2018-02-27T01:55:37.462Z,94.20
2018-02-27T01:58:38.656Z,94.20
2018-02-27T02:01:39.881Z,94.20
2018-02-27T02:04:41.104Z,94.50
2018-02-27T02:07:42.341Z,94.30
2018-02-27T02:10:43.576Z,94.60
2018-02-27T02:13:44.796Z,94.50
2018-02-27T02:16:46.024Z,94.30
2018-02-27T02:19:47.225Z,94.80
2018-02-27T02:22:48.425Z,94.90
2018-02-27T02:25:49.676Z,94.90
2018-02-27T02:28:51.613Z,95.10
2018-02-27T02:31:52.820Z,95.10
2018-02-27T02:34:54.017Z,95.00
2018-02-27T02:37:55.222Z,95.00
2018-02-27T02:40:57.188Z,95.10
2018-02-27T02:43:58.385Z,94.80
2018-02-27T02:46:59.593Z,95.10
2018-02-27T02:50:00.788Z,95.20
2018-02-27T02:53:02.734Z,95.30
2018-02-27T02:56:03.996Z,95.10
2018-02-27T02:59:05.207Z,94.80
2018-02-27T03:02:07.200Z,95.00
2018-02-27T03:05:08.404Z,95.00
2018-02-27T03:08:09.605Z,95.00
2018-02-27T03:11:11.554Z,94.80
2018-02-27T03:14:12.765Z,94.80
2018-02-27T03:17:14.004Z,94.70
2018-02-27T03:20:15.964Z,94.90
2018-02-27T03:23:17.164Z,94.90
2018-02-27T03:26:19.109Z,95.00
2018-02-27T03:29:20.319Z,95.00
2018-02-27T03:32:21.513Z,95.00
2018-02-27T03:35:22.744Z,94.80
2018-02-27T03:38:23.944Z,95.00
2018-02-27T03:41:25.175Z,95.20
2018-02-27T03:44:26.373Z,95.40
2018-02-27T03:47:27.581Z,95.30
2018-02-27T03:50:28.813Z,95.30
2018-02-27T03:53:30.032Z,95.30
2018-02-27T03:56:31.269Z,95.30
2018-02-27T03:59:32.480Z,95.30
2018-02-27T04:02:33.715Z,95.50
2018-02-27T04:05:34.938Z,96.00
2018-02-27T04:08:36.877Z,95.90
2018-02-27T04:11:38.821Z,96.20
2018-02-27T04:14:40.028Z,96.20
2018-02-27T04:17:41.256Z,96.00
2018-02-27T04:20:42.465Z,96.00
2018-02-27T04:23:43.675Z,96.00
2018-02-27T04:26:44.877Z,95.80
2018-02-27T04:29:46.069Z,95.90
2018-02-27T04:32:48.017Z,95.90
2018-02-27T04:35:49.233Z,95.90
2018-02-27T04:38:50.452Z,95.60
2018-02-27T04:41:51.668Z,95.80
2018-02-27T04:44:52.883Z,95.80
2018-02-27T04:47:54.077Z,95.70
2018-02-27T04:50:55.303Z,95.60
2018-02-27T04:53:56.501Z,95.60
2018-02-27T04:56:58.337Z,95.40
2018-02-27T04:59:59.592Z,95.60
2018-02-27T05:03:00.825Z,95.50
2018-02-27T05:06:02.045Z,95.50
2018-02-27T05:09:03.998Z,95.80
2018-02-27T05:12:05.219Z,96.00
2018-02-27T05:15:06.436Z,95.80
2018-02-27T05:18:07.673Z,95.80
2018-02-27T05:21:08.906Z,95.80
2018-02-27T05:24:10.098Z,95.70
2018-02-27T05:27:11.317Z,95.70
2018-02-27T05:30:12.525Z,95.90
2018-02-27T05:33:13.733Z,96.00
2018-02-27T05:36:15.672Z,96.00
2018-02-27T05:39:16.885Z,96.00
2018-02-27T05:42:18.088Z,96.00
2018-02-27T05:45:19.291Z,95.90
2018-02-27T05:48:21.243Z,96.20
2018-02-27T05:51:22.467Z,96.20
2018-02-27T05:54:23.692Z,96.20
2018-02-27T05:57:25.637Z,96.10
2018-02-27T06:00:26.841Z,96.10
2018-02-27T06:03:28.812Z,95.90
2018-02-27T06:06:30.779Z,96.10
2018-02-27T06:09:32.013Z,96.00
2018-02-27T06:12:33.256Z,96.20
2018-02-27T06:15:34.473Z,96.20
2018-02-27T06:18:35.661Z,96.10
2018-02-27T06:21:36.893Z,96.00
2018-02-27T06:24:38.080Z,96.40
2018-02-27T06:27:39.304Z,96.00
2018-02-27T06:30:40.535Z,96.20
2018-02-27T06:33:41.740Z,96.40
2018-02-27T06:36:43.693Z,96.50
2018-02-27T06:39:44.904Z,96.70
2018-02-27T06:42:46.871Z,96.70
2018-02-27T06:45:48.836Z,96.60
2018-02-27T06:48:50.044Z,96.60
2018-02-27T06:51:51.273Z,96.40
2018-02-27T06:54:53.205Z,96.50
2018-02-27T06:57:54.432Z,96.50
2018-02-27T07:00:55.660Z,96.50
2018-02-27T07:03:56.875Z,96.60
2018-02-27T07:06:58.101Z,96.70
2018-02-27T07:10:00.079Z,96.70
2018-02-27T07:13:02.052Z,96.70
2018-02-27T07:16:03.279Z,96.70
2018-02-27T07:19:04.499Z,96.90
2018-02-27T07:22:06.449Z,97.40
2018-02-27T07:25:07.670Z,97.40
2018-02-27T07:28:08.884Z,97.70
2018-02-27T07:31:10.103Z,97.60
2018-02-27T07:34:11.311Z,97.80
2018-02-27T07:37:13.284Z,98.00
2018-02-27T07:40:14.476Z,98.30
2018-02-27T07:43:15.677Z,98.00
2018-02-27T07:46:16.878Z,98.10
2018-02-27T07:49:18.821Z,97.60
2018-02-27T07:52:20.043Z,97.60
2018-02-27T07:55:21.249Z,97.60
2018-02-27T07:58:22.460Z,97.50
2018-02-27T08:01:24.416Z,97.90
2018-02-27T08:04:25.626Z,97.90
2018-02-27T08:07:26.840Z,97.40
2018-02-27T08:10:28.037Z,97.30
2018-02-27T08:13:29.233Z,97.30
2018-02-27T08:16:30.437Z,97.60
2018-02-27T08:19:32.373Z,96.80
2018-02-27T08:22:33.570Z,96.80
2018-02-27T08:25:34.796Z,96.90
2018-02-27T08:28:36.049Z,98.10
2018-02-27T08:31:37.964Z,96.10
2018-02-27T08:34:39.200Z,96.00
2018-02-27T08:37:40.451Z,97.10
2018-02-27T08:40:42.380Z,96.20
2018-02-27T08:43:43.591Z,96.20
2018-02-27T08:46:44.813Z,95.70
2018-02-27T08:49:46.749Z,95.30
2018-02-27T08:52:47.990Z,95.30
2018-02-27T08:55:49.209Z,99.90
2018-02-27T08:58:51.163Z,45.70
2018-02-27T09:01:52.395Z,45.80
2018-02-27T09:04:53.593Z,56.20
2018-02-27T09:07:54.820Z,63.80
2018-02-27T09:10:56.026Z,66.80
2018-02-27T09:13:57.236Z,70.50
2018-02-27T09:16:58.468Z,72.70
2018-02-27T09:20:00.444Z,73.80
2018-02-27T09:23:02.404Z,79.40
2018-02-27T09:26:03.649Z,79.20
2018-02-27T09:29:04.874Z,75.30
2018-02-27T09:32:06.103Z,74.00
2018-02-27T09:35:07.297Z,75.20
2018-02-27T09:38:08.529Z,74.10
2018-02-27T09:41:09.720Z,73.40
2018-02-27T09:44:10.917Z,75.10
2018-02-27T09:47:12.155Z,72.50
2018-02-27T09:50:13.365Z,70.20
2018-02-27T09:53:14.604Z,70.60
2018-02-27T09:56:15.832Z,70.60
2018-02-27T09:59:17.055Z,71.90
2018-02-27T10:02:18.268Z,71.40
2018-02-27T10:05:19.484Z,68.40
2018-02-27T10:08:21.103Z,68.20
2018-02-27T10:11:22.376Z,66.40
2018-02-27T10:14:23.557Z,66.40
2018-02-27T10:17:24.765Z,68.30
2018-02-27T10:20:26.722Z,68.00
2018-02-27T10:23:27.942Z,68.00
2018-02-27T10:26:29.167Z,66.00
2018-02-27T10:29:38.066Z,67.20
2018-02-27T10:32:39.284Z,67.20
2018-02-27T10:35:40.486Z,63.50
2018-02-27T10:38:41.708Z,63.90
2018-02-27T10:41:42.909Z,62.30
2018-02-27T10:44:44.109Z,62.40
2018-02-27T10:47:53.105Z,61.70
2018-02-27T10:50:54.319Z,61.70
2018-02-27T10:53:56.268Z,58.40
2018-02-27T10:56:57.478Z,58.30
2018-02-27T10:59:58.704Z,59.50
2018-02-27T11:02:59.902Z,61.10
2018-02-27T11:06:01.124Z,59.00
2018-02-27T11:09:02.367Z,57.40
2018-02-27T11:12:03.591Z,56.50
2018-02-27T11:15:04.808Z,57.00
2018-02-27T11:18:06.129Z,56.60
2018-02-27T11:21:07.341Z,56.90
2018-02-27T11:24:08.541Z,56.90
2018-02-27T11:27:09.749Z,58.50
2018-02-27T11:30:10.942Z,57.70
2018-02-27T11:33:12.893Z,56.60
2018-02-27T11:36:14.112Z,56.50
2018-02-27T11:39:15.319Z,56.60
2018-02-27T11:42:16.525Z,55.80
2018-02-27T11:45:17.768Z,55.90
2018-02-27T11:48:19.723Z,57.60
2018-02-27T11:51:20.952Z,58.10
2018-02-27T11:54:22.177Z,56.50
2018-02-27T11:57:24.129Z,54.00
2018-02-27T12:00:25.336Z,53.90
2018-02-27T12:03:26.537Z,53.20
2018-02-27T12:06:27.767Z,55.40
2018-02-27T12:09:28.970Z,53.20
2018-02-27T12:12:30.169Z,54.00
2018-02-27T12:15:32.141Z,55.50
2018-02-27T12:18:33.329Z,55.50
2018-02-27T12:21:34.554Z,53.80
2018-02-27T12:24:35.773Z,53.80
2018-02-27T12:27:36.986Z,54.40
2018-02-27T12:30:38.201Z,54.40
2018-02-27T12:33:39.397Z,54.60
2018-02-27T12:36:40.626Z,55.70
2018-02-27T12:39:41.844Z,54.70
2018-02-27T12:42:43.789Z,54.60
2018-02-27T12:45:45.008Z,54.50
2018-02-27T12:48:46.232Z,53.90
2018-02-27T12:51:47.437Z,54.30
2018-02-27T12:54:48.626Z,55.50
2018-02-27T12:57:49.833Z,56.10
2018-02-27T13:00:51.792Z,55.60
2018-02-27T13:03:52.985Z,55.60
2018-02-27T13:06:54.935Z,55.90
2018-02-27T13:13:04.046Z,57.10
2018-02-27T13:16:06.012Z,53.70
2018-02-27T13:19:07.227Z,53.60
2018-02-27T13:22:08.433Z,56.40
2018-02-27T13:25:09.653Z,57.10
2018-02-27T13:28:10.914Z,59.20
2018-02-27T13:31:12.289Z,58.60
2018-02-27T13:34:13.508Z,59.60
2018-02-27T13:37:15.461Z,60.90
2018-02-27T13:40:16.674Z,60.90
2018-02-27T13:43:17.869Z,61.10
2018-02-27T13:46:19.108Z,59.80
2018-02-27T13:49:24.844Z,59.20
2018-02-27T13:52:21.614Z,60.20
2018-02-27T13:55:22.768Z,62.90
2018-02-27T13:58:23.992Z,64.40
2018-02-27T14:01:25.213Z,64.40
2018-02-27T14:04:26.440Z,65.90
2018-02-27T14:07:27.736Z,65.80
2018-02-27T14:10:28.961Z,63.80
2018-02-27T14:13:30.893Z,60.90
2018-02-27T14:16:32.124Z,60.70
2018-02-27T14:19:33.348Z,60.80
2018-02-27T14:22:35.161Z,59.90
2018-02-27T14:25:38.225Z,61.30
2018-02-27T14:28:40.150Z,60.60
2018-02-27T14:31:41.948Z,60.70
2018-02-27T14:34:43.782Z,60.90
2018-02-27T14:37:45.681Z,63.00
2018-02-27T14:40:46.973Z,64.10
2018-02-27T14:43:50.112Z,61.80
2018-02-27T14:46:51.683Z,60.30
2018-02-27T14:49:53.024Z,59.90
2018-02-27T14:52:54.601Z,59.50
2018-02-27T14:55:56.589Z,59.70
2018-02-27T14:58:58.400Z,59.60
2018-02-27T15:01:59.660Z,60.60
2018-02-27T15:05:01.839Z,60.30
2018-02-27T15:08:03.081Z,60.20
2018-02-27T15:11:04.788Z,60.80
2018-02-27T15:14:07.229Z,60.20
2018-02-27T15:17:08.493Z,60.20
2018-02-27T15:20:09.781Z,62.60
2018-02-27T15:23:11.095Z,58.90
2018-02-27T15:26:12.328Z,59.90
2018-02-27T15:29:14.330Z,62.80
2018-02-27T15:32:15.580Z,62.80
2018-02-27T15:35:17.534Z,62.90
2018-02-27T15:38:18.768Z,62.80
2018-02-27T15:41:20.168Z,65.20
2018-02-27T15:44:22.136Z,64.00
2018-02-27T15:47:23.390Z,63.80
2018-02-27T15:50:24.613Z,79.70
2018-02-27T15:53:25.825Z,78.50
2018-02-27T15:56:27.060Z,72.80
2018-02-27T15:59:28.280Z,70.60
2018-02-27T16:02:30.234Z,72.60
2018-02-27T16:05:31.445Z,72.50
2018-02-27T16:08:32.694Z,73.20
2018-02-27T16:11:33.953Z,73.40
2018-02-27T16:14:35.199Z,73.40
2018-02-27T16:17:37.201Z,72.10
2018-02-27T16:20:38.427Z,72.20
2018-02-27T16:23:39.669Z,74.50
2018-02-27T16:26:40.901Z,73.00
2018-02-27T16:29:42.140Z,72.10
2018-02-27T16:32:44.111Z,71.30
2018-02-27T16:35:46.076Z,71.50
2018-02-27T16:38:47.308Z,71.20
2018-02-27T16:41:48.513Z,72.50
2018-02-27T16:44:50.460Z,73.30
2018-02-27T16:47:51.680Z,73.30
2018-02-27T16:50:52.908Z,73.00
2018-02-27T16:53:54.174Z,73.10
2018-02-27T16:56:56.153Z,76.30
2018-02-27T16:59:58.124Z,75.60
2018-02-27T17:02:59.365Z,75.60
2018-02-27T17:06:01.340Z,78.80
2018-02-27T17:09:02.611Z,78.70
2018-02-27T17:12:03.821Z,79.80
2018-02-27T17:15:05.748Z,81.30
2018-02-27T17:18:07.073Z,81.30
2018-02-27T17:21:08.281Z,81.20
2018-02-27T17:24:09.478Z,78.90
2018-02-27T17:27:11.445Z,80.10
2018-02-27T17:30:13.406Z,80.30
2018-02-27T17:33:14.656Z,80.20
2018-02-27T17:36:15.892Z,81.50
2018-02-27T17:39:17.136Z,81.50
2018-02-27T17:42:18.388Z,80.70
2018-02-27T17:45:20.379Z,83.70
2018-02-27T17:48:22.373Z,83.90
2018-02-27T17:51:23.732Z,83.90
2018-02-27T17:54:25.446Z,84.50
2018-02-27T17:57:27.217Z,84.70
2018-02-27T18:00:28.553Z,84.00
2018-02-27T18:03:31.208Z,83.40
2018-02-27T18:06:32.525Z,83.40
2018-02-27T18:09:33.905Z,93.40
2018-02-27T18:12:35.266Z,87.60
2018-02-27T18:15:36.566Z,87.60
2018-02-27T18:18:37.809Z,88.20
2018-02-27T18:21:39.095Z,87.80
2018-02-27T18:24:40.321Z,89.70
2018-02-27T18:27:41.620Z,90.40
2018-02-27T18:30:42.896Z,91.00
2018-02-27T18:33:44.160Z,91.10
2018-02-27T18:36:46.141Z,91.50
2018-02-27T18:39:48.118Z,92.10
2018-02-27T18:42:49.468Z,91.90
2018-02-27T18:45:50.724Z,92.30
2018-02-27T18:48:52.010Z,92.30
2018-02-27T18:51:53.245Z,91.90
2018-02-27T18:54:54.475Z,92.50
2018-02-27T18:57:55.710Z,93.00
2018-02-27T19:00:57.723Z,93.10
2018-02-27T19:03:58.949Z,93.00
2018-02-27T19:07:00.969Z,93.20
2018-02-27T19:10:02.261Z,93.10
2018-02-27T19:13:03.537Z,93.40
2018-02-27T19:16:04.851Z,93.40
2018-02-27T19:19:06.082Z,93.20
2018-02-27T19:22:08.095Z,93.50
2018-02-27T19:25:09.325Z,93.50
2018-02-27T19:28:11.341Z,93.80
2018-02-27T19:31:12.595Z,93.80
2018-02-27T19:34:13.838Z,94.10
2018-02-27T19:37:15.831Z,94.00
2018-02-27T19:40:17.033Z,94.00
2018-02-27T19:43:18.249Z,93.60
2018-02-27T19:46:20.229Z,93.90
2018-02-27T19:49:22.225Z,94.00
2018-02-27T19:52:23.464Z,94.00
2018-02-27T19:55:25.419Z,94.40
2018-02-27T19:58:26.630Z,94.30
2018-02-27T20:01:27.849Z,94.70
2018-02-27T20:04:29.058Z,94.40
2018-02-27T20:07:30.285Z,94.30
2018-02-27T20:10:32.270Z,94.70
2018-02-27T20:13:34.235Z,95.40
2018-02-27T20:16:35.465Z,95.30
2018-02-27T20:19:36.684Z,95.90
2018-02-27T20:22:44.839Z,96.90
2018-02-27T20:25:46.106Z,96.90
2018-02-27T20:28:53.371Z,97.60
2018-02-27T20:31:55.351Z,98.50
2018-02-27T20:34:57.305Z,98.90
2018-02-27T20:37:58.538Z,98.90
2018-02-27T20:40:59.754Z,99.10
2018-02-27T20:44:01.727Z,99.70
2018-02-27T20:47:03.686Z,99.70
2018-02-27T20:50:04.926Z,99.70
2018-02-27T20:53:06.164Z,99.60
2018-02-27T20:56:07.377Z,99.50
2018-02-27T20:59:08.576Z,99.60
2018-02-27T21:02:10.552Z,99.90
2018-02-27T21:05:12.545Z,99.90
2018-02-27T21:08:13.751Z,99.90
2018-02-27T21:11:14.950Z,99.90
2018-02-27T21:14:16.932Z,99.90
2018-02-27T21:17:18.890Z,99.90
2018-02-27T21:20:20.118Z,99.90
2018-02-27T21:23:21.362Z,99.90
2018-02-27T21:26:22.593Z,99.90
2018-02-27T21:29:24.560Z,99.90
2018-02-27T21:32:25.874Z,99.90
2018-02-27T21:35:27.683Z,99.90
2018-02-27T21:38:30.172Z,99.90
2018-02-27T21:41:32.376Z,99.90
2018-02-27T21:44:34.690Z,99.90
2018-02-27T21:47:37.201Z,99.90
2018-02-27T21:50:39.848Z,99.90
2018-02-27T21:53:42.508Z,99.90
2018-02-27T21:56:43.805Z,99.90
2018-02-27T21:59:45.575Z,99.90
2018-02-27T22:02:48.045Z,99.90
2018-02-27T22:05:50.248Z,99.90
2018-02-27T22:08:52.082Z,99.90
2018-02-27T22:11:53.313Z,99.90
2018-02-27T22:14:55.302Z,99.90
2018-02-27T22:17:57.778Z,99.90
2018-02-27T22:20:59.033Z,99.90
2018-02-27T22:24:00.288Z,99.90
2018-02-27T22:27:02.025Z,99.90
2018-02-27T22:30:03.278Z,99.90
2018-02-27T22:33:04.553Z,99.90
2018-02-27T22:36:05.784Z,99.90
2018-02-27T22:39:07.838Z,99.90
2018-02-27T22:42:09.072Z,99.90
2018-02-27T22:45:10.290Z,99.90
2018-02-27T22:48:12.264Z,99.90
2018-02-27T22:51:14.244Z,99.90
2018-02-27T22:54:16.275Z,99.90
2018-02-27T22:57:17.504Z,99.90
2018-02-27T23:00:35.962Z,99.90
2018-02-27T23:03:37.906Z,99.90
2018-02-27T23:06:39.118Z,99.90
2018-02-27T23:09:40.332Z,99.90
2018-02-27T23:12:41.542Z,99.90
2018-02-27T23:15:42.776Z,99.90
2018-02-27T23:18:43.992Z,99.90
2018-02-27T23:21:45.233Z,99.90
2018-02-27T23:25:03.070Z,99.90
2018-02-27T23:28:07.956Z,99.90
2018-02-27T23:31:09.925Z,99.90
2018-02-27T23:34:20.104Z,99.90
2018-02-27T23:37:21.341Z,99.90
2018-02-27T23:40:23.345Z,99.90
2018-02-27T23:43:24.563Z,99.90
2018-02-27T23:46:25.821Z,99.90
2018-02-27T23:49:27.052Z,99.90
2018-02-27T23:52:28.273Z,99.90
2018-02-27T23:55:29.502Z,99.90
2018-02-27T23:58:30.857Z,99.90
